Time;durP1;ratioP1;P1;durP2;ratioP2;P2;SDS_P1;SDS_P2;PMS_P1;PMS_P2;Temp;Humidity;BMP_temperature;BMP_pressure;BME280_temperature;BME280_humidity;BME280_pressure;Samples;Min_cycle;Max_cycle;Signal;HPM_P1;HPM_P2
2024/04/04 00:00:14;;;;;;;12.35;2.85;;;;;;;7.65;100.00;100630.09;4993421;28;20356;-89
2024/04/04 00:02:39;;;;;;;18.35;2.53;;;;;;;7.55;100.00;100633.50;4992906;28;20038;-88
2024/04/04 00:05:05;;;;;;;18.90;3.15;;;;;;;7.46;100.00;100628.94;4993219;28;20049;-88
2024/04/04 00:07:30;;;;;;;19.05;2.97;;;;;;;7.36;100.00;100631.50;4993313;28;20121;-88
2024/04/04 00:09:57;;;;;;;17.30;2.60;;;;;;;7.31;100.00;100627.53;4993187;28;20043;-88
2024/04/04 00:12:24;;;;;;;25.73;3.42;;;;;;;7.24;100.00;100627.19;4993278;28;20033;-87
2024/04/04 00:14:49;;;;;;;25.23;2.90;;;;;;;7.15;100.00;100619.97;4992815;28;20026;-87
2024/04/04 00:17:15;;;;;;;22.65;2.85;;;;;;;7.12;100.00;100618.44;4993049;28;20129;-87
2024/04/04 00:19:40;;;;;;;20.90;3.03;;;;;;;7.09;100.00;100620.47;4992913;28;20109;-87
2024/04/04 00:22:06;;;;;;;17.80;3.00;;;;;;;7.04;100.00;100618.19;4993168;28;20046;-87
2024/04/04 00:24:31;;;;;;;15.13;2.92;;;;;;;7.00;100.00;100612.31;4993048;28;20034;-88
2024/04/04 00:26:56;;;;;;;17.67;2.80;;;;;;;6.96;100.00;100605.56;4992627;28;20399;-88
2024/04/04 00:29:22;;;;;;;14.82;2.97;;;;;;;6.94;100.00;100604.88;4993263;28;20034;-88
2024/04/04 00:31:47;;;;;;;14.07;2.90;;;;;;;6.98;100.00;100603.63;4993321;28;20076;-88
2024/04/04 00:34:12;;;;;;;17.05;2.53;;;;;;;7.11;100.00;100605.31;4993079;28;20479;-89
2024/04/04 00:36:38;;;;;;;12.15;2.53;;;;;;;7.22;100.00;100606.13;4992960;28;20037;-87
2024/04/04 00:39:04;;;;;;;17.60;3.05;;;;;;;7.33;100.00;100600.00;4993020;28;20045;-87
2024/04/04 00:41:29;;;;;;;12.52;2.40;;;;;;;7.43;100.00;100601.88;4992743;28;20030;-87
2024/04/04 00:43:55;;;;;;;13.25;2.47;;;;;;;7.49;100.00;100593.44;4992631;28;20558;-86
2024/04/04 00:46:21;;;;;;;20.38;3.00;;;;;;;7.57;100.00;100588.38;4993225;28;20033;-85
2024/04/04 00:48:46;;;;;;;18.15;2.78;;;;;;;7.62;100.00;100590.66;4994309;28;20038;-86
2024/04/04 00:51:12;;;;;;;14.40;2.20;;;;;;;7.65;100.00;100577.97;4992642;28;20141;-86
2024/04/04 00:53:37;;;;;;;9.95;2.10;;;;;;;7.68;100.00;100583.03;4992585;28;20053;-86
2024/04/04 00:56:03;;;;;;;11.35;2.00;;;;;;;7.75;100.00;100583.38;4992323;28;20039;-87
2024/04/04 00:58:28;;;;;;;13.60;2.38;;;;;;;7.77;100.00;100582.25;4992451;28;20042;-86
2024/04/04 01:00:54;;;;;;;12.07;2.25;;;;;;;7.81;100.00;100582.84;4992200;28;20034;-87
2024/04/04 01:03:19;;;;;;;9.73;1.98;;;;;;;7.84;100.00;100569.34;4992905;28;20038;-85
2024/04/04 01:05:44;;;;;;;12.95;1.65;;;;;;;7.93;100.00;100575.69;4992795;28;20038;-87
2024/04/04 01:08:12;;;;;;;10.45;2.25;;;;;;;7.95;100.00;100573.75;4991525;28;20570;-86
2024/04/04 01:10:39;;;;;;;10.07;1.90;;;;;;;7.90;100.00;100568.84;4993837;28;20054;-85
2024/04/04 01:13:04;;;;;;;12.05;1.80;;;;;;;7.81;100.00;100563.47;4995473;28;20062;-85
2024/04/04 01:15:29;;;;;;;9.90;1.80;;;;;;;7.71;100.00;100566.88;4995052;28;20491;-85
2024/04/04 01:17:58;;;;;;;12.05;2.20;;;;;;;7.63;100.00;100566.69;4995640;28;20100;-86
2024/04/04 01:20:24;;;;;;;16.92;3.00;;;;;;;7.56;100.00;100554.91;4995868;28;20038;-86
2024/04/04 01:22:50;;;;;;;14.52;2.63;;;;;;;7.52;100.00;100556.13;4994066;28;20038;-86
2024/04/04 01:25:16;;;;;;;12.57;1.98;;;;;;;7.49;100.00;100553.72;4995552;28;20049;-85
2024/04/04 01:27:41;;;;;;;11.10;1.90;;;;;;;7.47;100.00;100545.91;4995524;28;20118;-86
2024/04/04 01:30:09;;;;;;;9.55;1.60;;;;;;;7.47;100.00;100550.38;4995383;28;20193;-88
2024/04/04 01:32:34;;;;;;;15.35;2.40;;;;;;;7.50;100.00;100555.41;4995340;28;20030;-85
2024/04/04 01:34:59;;;;;;;10.93;1.65;;;;;;;7.52;100.00;100548.19;4995301;28;20053;-86
2024/04/04 01:37:25;;;;;;;14.10;2.58;;;;;;;7.52;100.00;100542.88;4995500;28;20042;-86
2024/04/04 01:39:50;;;;;;;18.90;2.70;;;;;;;7.54;100.00;100543.63;4995094;28;20085;-86
2024/04/04 01:42:16;;;;;;;14.82;2.45;;;;;;;7.56;100.00;100539.84;4993989;28;20042;-85
2024/04/04 01:44:41;;;;;;;11.60;2.00;;;;;;;7.57;100.00;100538.91;4995312;28;20084;-86
2024/04/04 01:47:06;;;;;;;18.52;3.00;;;;;;;7.62;100.00;100538.50;4994798;28;20031;-85
2024/04/04 01:49:31;;;;;;;15.65;2.28;;;;;;;7.64;100.00;100520.69;4995150;28;20391;-88
2024/04/04 01:51:57;;;;;;;17.83;3.65;;;;;;;7.68;100.00;100521.28;4994262;28;20117;-86
2024/04/04 01:54:22;;;;;;;11.73;2.45;;;;;;;7.71;100.00;100513.06;4995014;28;20129;-84
2024/04/04 01:56:47;;;;;;;14.85;2.25;;;;;;;7.75;100.00;100510.03;4994865;28;20054;-86
2024/04/04 01:59:13;;;;;;;16.60;1.95;;;;;;;7.82;100.00;100504.22;4995206;28;20058;-85
2024/04/04 02:01:38;;;;;;;10.68;1.73;;;;;;;7.86;100.00;100505.66;4995264;28;20034;-86
2024/04/04 02:04:03;;;;;;;11.73;2.72;;;;;;;7.92;100.00;100499.84;4994645;28;20039;-86
2024/04/04 02:06:29;;;;;;;11.75;2.30;;;;;;;7.92;100.00;100498.00;4995138;28;20034;-85
2024/04/04 02:08:54;;;;;;;16.55;2.47;;;;;;;7.88;100.00;100496.63;4994502;28;20241;-86
2024/04/04 02:11:19;;;;;;;5.93;1.60;;;;;;;7.88;100.00;100493.09;4994652;28;20050;-87
2024/04/04 02:13:46;;;;;;;13.38;1.77;;;;;;;7.87;100.00;100492.28;4994903;28;20455;-87
2024/04/04 02:16:12;;;;;;;7.55;2.42;;;;;;;7.86;100.00;100484.47;4994483;28;20046;-87
2024/04/04 02:18:37;;;;;;;9.15;2.28;;;;;;;7.86;100.00;100477.34;4994868;28;20034;-87
2024/04/04 02:21:04;;;;;;;11.68;2.30;;;;;;;7.86;100.00;100479.16;4994238;28;20073;-88
2024/04/04 02:23:30;;;;;;;10.30;2.10;;;;;;;7.85;100.00;100466.88;4993986;28;20035;-88
2024/04/04 02:25:56;;;;;;;10.18;1.77;;;;;;;7.87;100.00;100468.44;4994133;28;20050;-87
2024/04/04 02:28:22;;;;;;;8.27;1.92;;;;;;;7.90;100.00;100459.41;4993594;28;20034;-83
2024/04/04 02:30:47;;;;;;;13.25;1.98;;;;;;;7.93;100.00;100451.19;4994458;28;20030;-87
2024/04/04 02:33:12;;;;;;;15.65;2.30;;;;;;;7.94;100.00;100452.84;4994186;28;20450;-87
2024/04/04 02:35:39;;;;;;;12.88;2.65;;;;;;;7.97;100.00;100452.56;4994904;28;20383;-88
2024/04/04 02:38:05;;;;;;;16.17;3.20;;;;;;;7.99;100.00;100440.06;4994634;28;20038;-84
2024/04/04 02:40:30;;;;;;;12.52;2.83;;;;;;;8.01;100.00;100434.63;4994441;28;20037;-89
2024/04/04 02:42:55;;;;;;;12.77;2.42;;;;;;;8.03;100.00;100440.63;4992988;28;20395;-86
2024/04/04 02:45:22;;;;;;;11.88;2.53;;;;;;;8.02;100.00;100429.19;4994606;28;20555;-87
2024/04/04 02:47:48;;;;;;;11.93;2.65;;;;;;;8.02;100.00;100428.38;4994314;28;20037;-85
2024/04/04 02:50:13;;;;;;;18.25;3.30;;;;;;;8.01;100.00;100424.84;4993865;28;20040;-84
2024/04/04 02:52:39;;;;;;;19.20;3.13;;;;;;;8.03;100.00;100420.28;4994329;28;20506;-86
2024/04/04 02:55:04;;;;;;;10.23;2.50;;;;;;;8.04;100.00;100413.16;4994036;28;20113;-88
2024/04/04 02:57:30;;;;;;;13.27;3.03;;;;;;;8.04;100.00;100408.69;4994428;28;20034;-84
2024/04/04 02:59:55;;;;;;;14.05;3.00;;;;;;;8.04;100.00;100407.88;4994913;28;20092;-86
2024/04/04 03:02:21;;;;;;;12.85;3.42;;;;;;;8.04;100.00;100407.88;4993926;28;20026;-86
2024/04/04 03:04:46;;;;;;;10.27;3.25;;;;;;;8.03;100.00;100403.53;4994345;28;20069;-86
2024/04/04 03:07:11;;;;;;;10.75;3.20;;;;;;;8.03;100.00;100406.16;4993698;28;20027;-82
2024/04/04 03:09:37;;;;;;;12.18;3.20;;;;;;;8.00;100.00;100407.31;4993950;28;20038;-85
2024/04/04 03:12:02;;;;;;;7.68;3.05;;;;;;;7.99;100.00;100410.09;4993311;28;20035;-84
2024/04/04 03:14:29;;;;;;;11.93;3.08;;;;;;;7.95;100.00;100393.59;4993702;28;20034;-83
2024/04/04 03:16:55;;;;;;;12.00;3.67;;;;;;;7.91;100.00;100395.69;4993354;28;20030;-83
2024/04/04 03:19:20;;;;;;;13.48;3.67;;;;;;;7.88;100.00;100389.78;4993103;28;20489;-83
2024/04/04 03:21:45;;;;;;;10.15;3.88;;;;;;;7.84;100.00;100381.28;4993403;28;20034;-82
2024/04/04 03:24:11;;;;;;;12.27;4.15;;;;;;;7.82;100.00;100379.72;4993055;28;20044;-82
2024/04/04 03:26:36;;;;;;;13.93;4.90;;;;;;;7.81;100.00;100375.41;4993456;28;20113;-82
2024/04/04 03:29:01;;;;;;;12.32;4.25;;;;;;;7.81;100.00;100378.06;4993037;28;20062;-84
2024/04/04 03:31:27;;;;;;;17.88;4.50;;;;;;;7.79;100.00;100378.19;4993330;28;20034;-83
2024/04/04 03:33:53;;;;;;;13.60;4.60;;;;;;;7.75;100.00;100369.69;4992945;28;20085;-83
2024/04/04 03:36:19;;;;;;;17.50;4.40;;;;;;;7.75;100.00;100367.03;4992804;28;20030;-83
2024/04/04 03:38:44;;;;;;;16.33;5.30;;;;;;;7.73;100.00;100365.47;4993363;28;20485;-82
2024/04/04 03:41:10;;;;;;;14.27;5.25;;;;;;;7.73;100.00;100366.34;4992858;28;20034;-84
2024/04/04 03:43:35;;;;;;;11.15;5.57;;;;;;;7.71;100.00;100344.41;4993260;28;20121;-84
2024/04/04 03:46:05;;;;;;;15.68;6.18;;;;;;;7.75;100.00;100355.59;4993297;28;20034;-84
2024/04/04 03:48:31;;;;;;;14.20;6.93;;;;;;;7.75;100.00;100348.50;4993292;28;20027;-84
2024/04/04 03:50:56;;;;;;;15.73;6.90;;;;;;;7.75;100.00;100340.53;4991822;28;20034;-83
2024/04/04 03:53:21;;;;;;;11.77;7.38;;;;;;;7.74;100.00;100332.72;4992649;28;20050;-85
2024/04/04 03:55:47;;;;;;;20.60;8.05;;;;;;;7.75;100.00;100334.41;4993194;28;20026;-85
2024/04/04 03:58:12;;;;;;;17.20;7.20;;;;;;;7.76;100.00;100325.47;4992640;28;20510;-84
2024/04/04 04:00:37;;;;;;;18.83;8.68;;;;;;;7.75;100.00;100319.34;4993157;28;20066;-84
2024/04/04 04:03:04;;;;;;;24.42;8.65;;;;;;;7.77;100.00;100303.31;4992999;28;20088;-85
2024/04/04 04:05:29;;;;;;;17.92;9.40;;;;;;;7.79;100.00;100298.72;4992806;28;20067;-85
2024/04/04 04:07:56;;;;;;;23.27;9.85;;;;;;;7.81;100.00;100285.34;4993138;28;20426;-85
2024/04/04 04:10:27;;;;;;;23.27;10.02;;;;;;;7.81;100.00;100288.84;4992577;28;20060;-84
2024/04/04 04:12:53;;;;;;;23.48;9.98;;;;;;;7.81;100.00;100302.09;4993260;28;20034;-84
2024/04/04 04:15:19;;;;;;;23.02;10.80;;;;;;;7.81;100.00;100301.25;4992625;28;20035;-83
2024/04/04 04:17:46;;;;;;;23.90;10.85;;;;;;;7.83;100.00;100299.31;4991388;28;20410;-84
2024/04/04 04:22:55;;;;;;;23.95;11.75;;;;;;;7.84;100.00;100280.63;4993152;28;20622;-84
2024/04/04 04:25:20;;;;;;;24.13;11.10;;;;;;;7.85;100.00;100281.47;4992545;28;20109;-85
2024/04/04 04:27:46;;;;;;;24.55;11.48;;;;;;;7.88;100.00;100279.41;4992890;28;20447;-83
2024/04/04 04:30:11;;;;;;;25.92;10.95;;;;;;;7.89;100.00;100272.28;4992825;28;20117;-83
2024/04/04 04:32:38;;;;;;;27.08;11.80;;;;;;;7.91;100.00;100279.13;4992721;28;20045;-84
2024/04/04 04:35:04;;;;;;;22.27;12.05;;;;;;;7.92;100.00;100275.50;4992719;28;20038;-85
2024/04/04 04:37:29;;;;;;;29.00;12.93;;;;;;;7.94;100.00;100278.84;4992134;28;20275;-84
2024/04/04 04:39:54;;;;;;;23.67;12.82;;;;;;;7.97;100.00;100288.31;4992842;28;20026;-85
2024/04/04 04:42:20;;;;;;;20.23;12.40;;;;;;;8.00;100.00;100279.28;4992362;28;20459;-84
2024/04/04 04:44:45;;;;;;;21.30;12.88;;;;;;;8.01;100.00;100271.19;4992879;28;20431;-83
2024/04/04 04:47:10;;;;;;;26.30;13.15;;;;;;;8.06;100.00;100276.06;4996639;28;20122;-84
2024/04/04 04:49:36;;;;;;;27.98;12.93;;;;;;;8.07;100.00;100275.94;4994977;28;20042;-85
2024/04/04 04:52:02;;;;;;;25.48;13.88;;;;;;;8.08;100.00;100267.03;4996238;28;20434;-85
2024/04/04 04:54:27;;;;;;;23.13;12.75;;;;;;;8.15;100.00;100271.78;4996033;28;20030;-84
2024/04/04 04:56:52;;;;;;;23.70;11.80;;;;;;;8.19;100.00;100266.06;4996440;28;20451;-86
2024/04/04 04:59:18;;;;;;;19.83;12.32;;;;;;;8.23;100.00;100242.78;4994975;28;20034;-84
2024/04/04 05:01:43;;;;;;;22.63;13.00;;;;;;;8.26;100.00;100245.16;4996385;28;20121;-84
2024/04/04 05:04:09;;;;;;;21.20;12.82;;;;;;;8.29;100.00;100252.81;4996458;28;20113;-84
2024/04/04 05:06:34;;;;;;;20.05;11.73;;;;;;;8.36;100.00;100247.78;4995977;28;20047;-84
2024/04/04 05:09:00;;;;;;;22.92;11.52;;;;;;;8.39;100.00;100239.56;4996310;28;20026;-83
2024/04/04 05:11:25;;;;;;;16.98;11.13;;;;;;;8.45;100.00;100239.88;4994638;28;20042;-84
2024/04/04 05:13:51;;;;;;;21.83;11.95;;;;;;;8.50;100.00;100251.91;4995776;28;20328;-82
2024/04/04 05:16:16;;;;;;;22.63;11.95;;;;;;;8.57;100.00;100234.41;4995587;28;20045;-84
2024/04/04 05:18:41;;;;;;;18.85;10.63;;;;;;;8.59;100.00;100237.78;4996245;28;20041;-86
2024/04/04 05:21:07;;;;;;;20.20;11.18;;;;;;;8.64;100.00;100240.84;4995931;28;20041;-84
2024/04/04 05:23:33;;;;;;;18.52;10.70;;;;;;;8.67;100.00;100245.03;4995611;28;20026;-86
2024/04/04 05:25:59;;;;;;;17.17;9.75;;;;;;;8.70;100.00;100242.94;4995667;28;20058;-85
2024/04/04 05:28:29;;;;;;;19.90;8.90;;;;;;;8.73;100.00;100229.41;4995563;28;20035;-86
2024/04/04 05:30:57;;;;;;;19.65;9.10;;;;;;;8.76;100.00;100215.84;4994814;28;20033;-85
2024/04/04 05:33:24;;;;;;;19.13;8.50;;;;;;;8.76;100.00;100223.81;4995395;28;20185;-86
2024/04/04 05:35:50;;;;;;;14.40;7.88;;;;;;;8.78;100.00;100244.91;4995710;28;20038;-86
2024/04/04 05:38:15;;;;;;;13.38;8.10;;;;;;;8.80;100.00;100240.28;4995854;28;20519;-85
2024/04/04 05:40:41;;;;;;;17.92;8.23;;;;;;;8.81;100.00;100247.25;4995238;28;20046;-84
2024/04/04 05:43:06;;;;;;;11.50;6.05;;;;;;;8.85;100.00;100239.84;4995542;28;20045;-84
2024/04/04 05:45:31;;;;;;;10.60;6.05;;;;;;;8.87;100.00;100230.78;4995239;28;20046;-84
2024/04/04 05:47:57;;;;;;;10.55;5.82;;;;;;;8.90;100.00;100230.47;4995955;28;20041;-85
2024/04/04 05:50:22;;;;;;;11.52;6.55;;;;;;;8.95;100.00;100235.34;4995076;28;20116;-84
2024/04/04 05:52:48;;;;;;;11.95;5.63;;;;;;;8.97;100.00;100233.38;4995394;28;20442;-85
2024/04/04 05:55:13;;;;;;;12.68;6.32;;;;;;;9.02;100.00;100239.13;4995674;28;20034;-83
2024/04/04 05:57:38;;;;;;;11.50;5.55;;;;;;;9.07;100.00;100250.13;4994555;28;20030;-84
2024/04/04 06:00:05;;;;;;;10.77;5.53;;;;;;;9.09;100.00;100245.53;4995339;28;20030;-85
2024/04/04 06:02:30;;;;;;;8.88;5.72;;;;;;;9.12;100.00;100249.69;4994777;28;20084;-85
2024/04/04 06:04:56;;;;;;;13.40;5.63;;;;;;;9.14;100.00;100245.91;4995184;28;20042;-84
2024/04/04 06:07:21;;;;;;;10.63;4.55;;;;;;;9.18;100.00;100249.97;4995116;28;20368;-85
2024/04/04 06:09:46;;;;;;;11.02;4.63;;;;;;;9.20;100.00;100252.47;4994635;28;20486;-85
2024/04/04 06:12:12;;;;;;;7.63;4.97;;;;;;;9.22;100.00;100250.50;4994967;28;20078;-84
2024/04/04 06:14:40;;;;;;;13.82;5.38;;;;;;;9.26;100.00;100251.88;4994528;28;20193;-84
2024/04/04 06:17:05;;;;;;;15.43;5.43;;;;;;;9.30;100.00;100245.31;4994991;28;20204;-84
2024/04/04 06:19:31;;;;;;;10.15;4.90;;;;;;;9.34;100.00;100254.66;4994519;28;20391;-82
2024/04/04 06:21:56;;;;;;;10.93;4.97;;;;;;;9.38;100.00;100249.91;4994425;28;20030;-84
2024/04/04 06:24:22;;;;;;;11.00;4.70;;;;;;;9.42;100.00;100248.63;4994616;28;20045;-85
2024/04/04 06:26:49;;;;;;;10.52;4.45;;;;;;;9.46;100.00;100249.97;4993086;28;20034;-84
2024/04/04 06:29:15;;;;;;;16.98;4.80;;;;;;;9.52;100.00;100245.91;4994830;28;20041;-84
2024/04/04 06:31:41;;;;;;;17.75;4.82;;;;;;;9.55;100.00;100239.47;4994307;28;20467;-82
2024/04/04 06:34:06;;;;;;;17.95;4.30;;;;;;;9.60;100.00;100231.91;4994429;28;20041;-82
2024/04/04 06:36:31;;;;;;;20.05;4.50;;;;;;;9.65;100.00;100230.47;4993926;28;20034;-83
2024/04/04 06:39:02;;;;;;;24.20;5.30;;;;;;;9.70;100.00;100236.19;4994330;28;20118;-84
2024/04/04 06:41:27;;;;;;;21.00;5.32;;;;;;;9.73;100.00;100220.94;4994491;28;20042;-82
2024/04/04 06:43:52;;;;;;;23.40;4.82;;;;;;;9.78;100.00;100227.47;4993822;28;20142;-81
2024/04/04 06:46:18;;;;;;;18.15;4.40;;;;;;;9.81;100.00;100229.00;4994182;28;20410;-82
2024/04/04 06:48:43;;;;;;;23.23;4.25;;;;;;;9.87;100.00;100231.06;4993620;28;20463;-82
2024/04/04 06:51:08;;;;;;;19.58;4.50;;;;;;;9.92;100.00;100225.31;4993836;28;20064;-81
2024/04/04 06:53:34;;;;;;;23.73;4.88;;;;;;;9.96;100.00;100226.69;4991966;28;20133;-82
2024/04/04 06:55:59;;;;;;;18.83;4.82;;;;;;;9.99;100.00;100242.31;4994106;28;20121;-80
2024/04/04 06:58:24;;;;;;;18.75;4.78;;;;;;;9.98;100.00;100240.66;4992096;28;20494;-80
2024/04/04 07:00:57;;;;;;;21.20;4.55;;;;;;;9.97;100.00;100223.88;4970603;28;20078;-77
2024/04/04 07:03:22;;;;;;;15.70;4.22;;;;;;;9.97;100.00;100233.66;4971948;28;20490;-81
2024/04/04 07:05:48;;;;;;;15.35;4.50;;;;;;;9.95;100.00;100231.13;4972095;28;20038;-78
2024/04/04 07:08:13;;;;;;;14.93;5.72;;;;;;;9.95;100.00;100214.38;4971700;28;20034;-79
2024/04/04 07:10:39;;;;;;;16.02;4.65;;;;;;;9.93;100.00;100201.22;4971154;28;20051;-79
2024/04/04 07:13:04;;;;;;;15.30;4.90;;;;;;;9.94;100.00;100207.38;4971906;28;20041;-79
2024/04/04 07:15:31;;;;;;;17.73;5.03;;;;;;;9.95;100.00;100201.09;4971752;28;20035;-80
2024/04/04 07:17:57;;;;;;;23.92;5.22;;;;;;;9.96;100.00;100205.41;4971427;28;20118;-81
2024/04/04 07:20:23;;;;;;;15.63;5.18;;;;;;;9.99;100.00;100203.28;4970269;28;20451;-79
2024/04/04 07:22:48;;;;;;;17.98;4.80;;;;;;;10.03;100.00;100217.09;4980940;28;20037;-82
2024/04/04 07:25:15;;;;;;;24.48;4.40;;;;;;;10.05;100.00;100215.16;4988522;28;20044;-82
2024/04/04 07:27:40;;;;;;;15.20;4.82;;;;;;;10.08;100.00;100225.47;4993111;28;20030;-82
2024/04/04 07:30:07;;;;;;;21.58;4.28;;;;;;;10.12;100.00;100233.97;4993783;28;20034;-83
2024/04/04 07:32:33;;;;;;;12.75;3.90;;;;;;;10.16;100.00;100238.81;4993577;28;20036;-81
2024/04/04 07:35:01;;;;;;;15.38;3.65;;;;;;;10.18;100.00;100233.34;4993267;28;20109;-81
2024/04/04 07:37:26;;;;;;;20.50;3.60;;;;;;;10.20;100.00;100236.72;4993414;28;20038;-83
2024/04/04 07:39:52;;;;;;;21.95;4.15;;;;;;;10.24;100.00;100235.44;4993137;28;20096;-81
2024/04/04 07:42:19;;;;;;;16.23;4.05;;;;;;;10.27;100.00;100226.28;4993547;28;20037;-82
2024/04/04 07:44:44;;;;;;;17.63;4.03;;;;;;;10.28;100.00;100215.50;4992968;28;20037;-87
2024/04/04 07:47:10;;;;;;;14.32;3.83;;;;;;;10.31;100.00;100212.53;4993444;28;20030;-85
2024/04/04 07:49:35;;;;;;;14.55;3.78;;;;;;;10.35;100.00;100229.09;4993222;28;20082;-82
2024/04/04 07:52:01;;;;;;;14.88;3.08;;;;;;;10.33;100.00;100220.38;4992536;28;20038;-84
2024/04/04 07:54:26;;;;;;;10.80;3.20;;;;;;;10.33;100.00;100231.00;4993405;28;20395;-84
2024/04/04 07:56:51;;;;;;;11.00;3.50;;;;;;;10.30;100.00;100228.66;4992946;28;20132;-83
2024/04/04 07:59:17;;;;;;;12.45;3.30;;;;;;;10.30;100.00;100232.16;4993384;28;20042;-85
2024/04/04 08:01:42;;;;;;;10.63;3.30;;;;;;;10.32;100.00;100214.22;4992537;28;20030;-81
2024/04/04 08:04:08;;;;;;;19.33;4.18;;;;;;;10.38;100.00;100226.13;4993317;28;20053;-81
2024/04/04 08:06:34;;;;;;;10.70;3.08;;;;;;;10.43;100.00;100228.31;4991794;28;20049;-80
2024/04/04 08:09:00;;;;;;;12.75;3.35;;;;;;;10.44;100.00;100236.13;4992732;28;20121;-81
2024/04/04 08:11:26;;;;;;;12.48;3.88;;;;;;;10.41;100.00;100226.63;4993082;28;20046;-80
2024/04/04 08:13:52;;;;;;;13.70;3.42;;;;;;;10.45;100.00;100231.66;4992561;28;20035;-80
2024/04/04 08:16:17;;;;;;;13.40;3.20;;;;;;;10.53;100.00;100234.38;4993140;28;20036;-80
2024/04/04 08:18:43;;;;;;;13.32;3.47;;;;;;;10.54;100.00;100236.06;4992524;28;20423;-80
2024/04/04 08:21:08;;;;;;;14.40;3.85;;;;;;;10.54;100.00;100231.56;4995456;28;20027;-79
2024/04/04 08:23:34;;;;;;;10.90;2.47;;;;;;;10.54;100.00;100234.22;4997054;28;20031;-80
2024/04/04 08:26:04;;;;;;;10.02;2.60;;;;;;;10.55;100.00;100225.28;4994942;28;20034;-83
2024/04/04 08:28:29;;;;;;;12.75;2.70;;;;;;;10.68;100.00;100224.03;4997189;28;20038;-87
2024/04/04 08:30:58;;;;;;;9.13;2.30;;;;;;;10.89;100.00;100208.53;4995186;28;20395;-81
2024/04/04 08:33:24;;;;;;;14.60;3.35;;;;;;;11.04;100.00;100205.31;4996915;28;20038;-86
2024/04/04 08:35:50;;;;;;;15.60;2.70;;;;;;;11.10;100.00;100197.50;4996512;28;20034;-87
2024/04/04 08:38:16;;;;;;;15.73;2.47;;;;;;;11.16;100.00;100208.53;4996648;28;20388;-84
2024/04/04 08:40:42;;;;;;;25.65;3.63;;;;;;;11.18;100.00;100206.53;4996740;28;20529;-79
2024/04/04 08:43:07;;;;;;;11.13;2.60;;;;;;;11.17;100.00;100208.38;4996076;28;20481;-82
2024/04/04 08:45:37;;;;;;;15.57;3.28;;;;;;;11.27;100.00;100213.56;4996710;28;20034;-77
2024/04/04 08:48:04;;;;;;;16.02;2.47;;;;;;;11.22;100.00;100190.06;4996251;28;20133;-77
2024/04/04 08:50:30;;;;;;;11.43;2.40;;;;;;;11.32;100.00;100213.13;4995507;28;20069;-77
2024/04/04 08:52:55;;;;;;;11.93;2.00;;;;;;;11.38;100.00;100231.13;4995776;28;20103;-78
2024/04/04 08:55:21;;;;;;;14.07;2.85;;;;;;;11.90;100.00;100222.97;4996469;28;20084;-80
2024/04/04 08:57:47;;;;;;;19.80;2.33;;;;;;;12.68;100.00;100212.91;4996406;28;20046;-77
2024/04/04 09:00:20;;;;;;;12.50;2.22;;;;;;;13.65;100.00;100218.19;4995957;28;20076;-76
2024/04/04 09:02:45;;;;;;;8.05;1.83;;;;;;;14.31;100.00;100223.13;4996328;28;20115;-79
2024/04/04 09:05:10;;;;;;;13.18;2.42;;;;;;;13.37;100.00;100240.00;4995739;28;20050;-77
2024/04/04 09:07:36;;;;;;;14.32;2.13;;;;;;;12.83;100.00;100221.91;4996355;28;20030;-80
2024/04/04 09:10:05;;;;;;;15.23;2.90;;;;;;;12.61;100.00;100212.72;4995736;28;20053;-77
2024/04/04 09:12:31;;;;;;;11.65;1.98;;;;;;;12.25;100.00;100234.41;4994994;28;20096;-80
2024/04/04 09:15:00;;;;;;;11.90;2.20;;;;;;;11.92;100.00;100231.63;4995779;28;20117;-79
2024/04/04 09:17:26;;;;;;;16.00;2.58;;;;;;;11.77;100.00;100222.59;4996006;28;20490;-79
2024/04/04 09:19:55;;;;;;;13.23;2.33;;;;;;;12.99;100.00;100241.59;4995552;28;20069;-80
2024/04/04 09:22:21;;;;;;;10.82;2.15;;;;;;;13.87;100.00;100248.66;4995620;28;20510;-81
2024/04/04 09:24:47;;;;;;;15.52;2.50;;;;;;;13.71;100.00;100257.59;4995606;28;20037;-78
2024/04/04 09:27:19;;;;;;;17.98;2.63;;;;;;;14.19;100.00;100262.03;4995195;28;20038;-80
2024/04/04 09:29:46;;;;;;;18.58;3.63;;;;;;;13.69;100.00;100267.63;4995458;28;20034;-80
2024/04/04 09:32:17;;;;;;;14.40;2.45;;;;;;;12.85;100.00;100270.63;4994455;28;20031;-81
2024/04/04 09:34:43;;;;;;;22.52;2.70;;;;;;;12.51;100.00;100274.28;4995604;28;20041;-79
2024/04/04 09:37:11;;;;;;;17.17;2.60;;;;;;;12.58;100.00;100274.44;4995115;28;20058;-76
2024/04/04 09:39:37;;;;;;;19.42;3.40;;;;;;;13.36;100.00;100272.22;4995621;28;20042;-82
2024/04/04 09:42:03;;;;;;;22.58;2.90;;;;;;;13.34;100.00;100291.09;4995185;28;20084;-77
2024/04/04 09:44:30;;;;;;;18.70;3.72;;;;;;;13.62;100.00;100298.72;4995599;28;20030;-78
2024/04/04 09:46:58;;;;;;;25.70;3.47;;;;;;;13.64;100.00;100295.88;4995186;28;20113;-78
2024/04/04 09:49:24;;;;;;;22.98;3.13;;;;;;;13.93;100.00;100300.63;4995370;28;20034;-76
2024/04/04 09:51:53;;;;;;;20.90;3.17;;;;;;;14.04;100.00;100300.22;4995096;28;20089;-75
2024/04/04 09:54:20;;;;;;;19.00;2.72;;;;;;;14.56;100.00;100296.06;4994652;28;20030;-77
2024/04/04 09:56:48;;;;;;;16.48;2.95;;;;;;;14.02;100.00;100304.91;4993967;28;20394;-77
2024/04/04 09:59:13;;;;;;;18.13;3.00;;;;;;;14.53;100.00;100322.38;4994875;28;20043;-77
2024/04/04 10:01:39;;;;;;;17.40;3.25;;;;;;;15.58;100.00;100288.63;4995230;28;20094;-77
2024/04/04 10:04:05;;;;;;;16.40;3.30;;;;;;;16.81;100.00;100323.69;4994876;28;20130;-76
2024/04/04 10:06:40;;;;;;;18.52;3.10;;;;;;;17.11;100.00;100321.75;4995378;28;20129;-75
2024/04/04 10:09:20;;;;;;;15.48;2.75;;;;;;;17.79;100.00;100316.59;4994646;28;20038;-76
2024/04/04 10:11:47;;;;;;;13.50;3.10;;;;;;;18.36;100.00;100324.50;4994935;28;20062;-77
2024/04/04 10:14:25;;;;;;;19.40;2.63;;;;;;;18.15;100.00;100339.78;4993133;28;20034;-81
2024/04/04 10:16:53;;;;;;;19.88;4.28;;;;;;;19.08;100.00;100337.47;4994657;28;20120;-78
2024/04/04 10:19:20;;;;;;;16.35;2.92;;;;;;;18.65;100.00;100325.19;4994526;28;20037;-79
2024/04/04 10:21:46;;;;;;;24.08;3.58;;;;;;;18.12;100.00;100360.84;4994825;28;20034;-76
2024/04/04 10:24:22;;;;;;;15.88;3.47;;;;;;;17.90;100.00;100355.59;4994407;28;20038;-79
2024/04/04 10:26:55;;;;;;;15.45;3.58;;;;;;;17.03;100.00;100357.66;4993687;28;20368;-77
2024/04/04 10:29:21;;;;;;;20.38;3.33;;;;;;;16.29;100.00;100369.44;4993896;28;20046;-78
2024/04/04 10:31:46;;;;;;;12.35;2.83;;;;;;;15.59;100.00;100355.47;4994389;28;20073;-77
2024/04/04 10:34:12;;;;;;;19.90;3.20;;;;;;;15.24;100.00;100357.84;4993931;28;20053;-81
2024/04/04 10:36:47;;;;;;;29.98;4.13;;;;;;;15.82;100.00;100360.81;4994124;28;20034;-79
2024/04/04 10:39:16;;;;;;;17.80;3.10;;;;;;;16.84;100.00;100395.84;4993991;28;20038;-75
2024/04/04 10:41:44;;;;;;;24.58;3.58;;;;;;;17.24;100.00;100369.38;4994036;28;20034;-77
2024/04/04 10:44:13;;;;;;;19.55;3.13;;;;;;;17.63;100.00;100374.25;4993026;28;20034;-81
2024/04/04 10:46:49;;;;;;;15.57;2.83;;;;;;;17.55;100.00;100366.31;4994369;28;20129;-78
2024/04/04 10:49:17;;;;;;;23.50;3.38;;;;;;;17.60;100.00;100368.41;4993699;28;20026;-78
2024/04/04 10:51:49;;;;;;;23.63;3.80;;;;;;;17.44;100.00;100365.00;4994253;28;20153;-80
2024/04/04 10:54:16;;;;;;;26.20;4.32;;;;;;;17.71;100.00;100370.56;4993616;28;20035;-79
2024/04/04 10:56:41;;;;;;;20.42;3.83;;;;;;;16.91;100.00;100378.84;4994168;28;20062;-78
2024/04/04 10:59:06;;;;;;;20.73;4.05;;;;;;;16.75;100.00;100389.78;4993835;28;20466;-80
2024/04/04 11:01:33;;;;;;;28.33;3.97;;;;;;;16.69;100.00;100382.47;4994105;28;20030;-79
2024/04/04 11:03:59;;;;;;;23.20;4.15;;;;;;;15.41;100.00;100397.91;4993908;28;20030;-76
2024/04/04 11:06:28;;;;;;;27.35;4.55;;;;;;;15.09;100.00;100391.78;4993519;28;20038;-78
2024/04/04 11:08:54;;;;;;;18.80;3.38;;;;;;;14.80;100.00;100396.84;4993479;28;20026;-79
2024/04/04 11:11:21;;;;;;;27.27;4.97;;;;;;;14.35;100.00;100389.56;4993421;28;20038;-79